sensor_id;sensor_type;location;lat;lon;timestamp;temperature;humidity
59025;DHT22;44806;48.008;13.666;2024-01-06T00:00:33;4.20;99.90
59025;DHT22;44806;48.008;13.666;2024-01-06T00:02:59;4.10;99.90
59025;DHT22;44806;48.008;13.666;2024-01-06T00:05:26;4.10;99.90
59025;DHT22;44806;48.008;13.666;2024-01-06T00:07:53;4.10;99.90
59025;DHT22;44806;48.008;13.666;2024-01-06T00:10:20;4.20;99.90
59025;DHT22;44806;48.008;13.666;2024-01-06T00:12:47;4.20;99.90
59025;DHT22;44806;48.008;13.666;2024-01-06T00:15:15;4.20;99.90
59025;DHT22;44806;48.008;13.666;2024-01-06T00:17:43;4.20;99.90
59025;DHT22;44806;48.008;13.666;2024-01-06T00:20:10;4.10;99.90
59025;DHT22;44806;48.008;13.666;2024-01-06T00:22:37;4.10;99.90
59025;DHT22;44806;48.008;13.666;2024-01-06T00:25:05;4.10;99.90
59025;DHT22;44806;48.008;13.666;2024-01-06T00:27:32;4.10;99.90
59025;DHT22;44806;48.008;13.666;2024-01-06T00:29:59;4.10;99.90
59025;DHT22;44806;48.008;13.666;2024-01-06T00:32:26;4.00;99.90
59025;DHT22;44806;48.008;13.666;2024-01-06T00:34:54;4.10;99.90
59025;DHT22;44806;48.008;13.666;2024-01-06T00:37:21;4.10;99.90
59025;DHT22;44806;48.008;13.666;2024-01-06T00:39:48;4.10;99.90
59025;DHT22;44806;48.008;13.666;2024-01-06T00:42:15;4.20;99.90
59025;DHT22;44806;48.008;13.666;2024-01-06T00:44:42;4.10;99.90
59025;DHT22;44806;48.008;13.666;2024-01-06T00:47:10;4.00;99.90
59025;DHT22;44806;48.008;13.666;2024-01-06T00:49:37;4.00;99.90
59025;DHT22;44806;48.008;13.666;2024-01-06T00:52:06;4.00;99.90
59025;DHT22;44806;48.008;13.666;2024-01-06T00:54:33;4.00;99.90
59025;DHT22;44806;48.008;13.666;2024-01-06T00:56:59;4.10;99.90
59025;DHT22;44806;48.008;13.666;2024-01-06T00:59:26;4.10;99.90
59025;DHT22;44806;48.008;13.666;2024-01-06T01:01:54;4.10;99.90
59025;DHT22;44806;48.008;13.666;2024-01-06T01:04:21;4.20;99.90
59025;DHT22;44806;48.008;13.666;2024-01-06T01:06:48;4.10;99.90
59025;DHT22;44806;48.008;13.666;2024-01-06T01:09:16;4.20;99.90
59025;DHT22;44806;48.008;13.666;2024-01-06T01:11:43;4.20;99.90
59025;DHT22;44806;48.008;13.666;2024-01-06T01:14:10;4.30;99.90
59025;DHT22;44806;48.008;13.666;2024-01-06T01:16:37;4.20;99.90
59025;DHT22;44806;48.008;13.666;2024-01-06T01:19:04;4.20;99.90
59025;DHT22;44806;48.008;13.666;2024-01-06T01:21:31;4.20;99.90
59025;DHT22;44806;48.008;13.666;2024-01-06T01:23:58;4.20;99.90
59025;DHT22;44806;48.008;13.666;2024-01-06T01:26:26;4.20;99.90
59025;DHT22;44806;48.008;13.666;2024-01-06T01:28:53;4.30;99.90
59025;DHT22;44806;48.008;13.666;2024-01-06T01:31:20;4.30;99.90
59025;DHT22;44806;48.008;13.666;2024-01-06T01:33:47;4.30;99.90
59025;DHT22;44806;48.008;13.666;2024-01-06T01:36:14;4.30;99.90
59025;DHT22;44806;48.008;13.666;2024-01-06T01:38:41;4.30;99.90
59025;DHT22;44806;48.008;13.666;2024-01-06T01:41:08;4.30;99.90
59025;DHT22;44806;48.008;13.666;2024-01-06T01:43:36;4.30;99.90
59025;DHT22;44806;48.008;13.666;2024-01-06T01:46:03;4.30;99.90
59025;DHT22;44806;48.008;13.666;2024-01-06T01:48:30;4.40;99.90
59025;DHT22;44806;48.008;13.666;2024-01-06T01:51:00;4.40;99.90
59025;DHT22;44806;48.008;13.666;2024-01-06T01:53:26;4.30;99.90
59025;DHT22;44806;48.008;13.666;2024-01-06T01:55:54;4.30;99.90
59025;DHT22;44806;48.008;13.666;2024-01-06T01:58:21;4.20;99.90
59025;DHT22;44806;48.008;13.666;2024-01-06T02:00:49;4.30;99.90
59025;DHT22;44806;48.008;13.666;2024-01-06T02:03:16;4.30;99.90
59025;DHT22;44806;48.008;13.666;2024-01-06T02:05:43;4.30;99.90
59025;DHT22;44806;48.008;13.666;2024-01-06T02:08:10;4.30;99.90
59025;DHT22;44806;48.008;13.666;2024-01-06T02:10:37;4.20;99.90
59025;DHT22;44806;48.008;13.666;2024-01-06T02:13:09;4.30;99.90
59025;DHT22;44806;48.008;13.666;2024-01-06T02:15:36;4.40;99.90
59025;DHT22;44806;48.008;13.666;2024-01-06T02:18:05;4.30;99.90
59025;DHT22;44806;48.008;13.666;2024-01-06T02:20:32;4.30;99.90
59025;DHT22;44806;48.008;13.666;2024-01-06T02:23:00;4.20;99.90
59025;DHT22;44806;48.008;13.666;2024-01-06T02:25:27;4.10;99.90
59025;DHT22;44806;48.008;13.666;2024-01-06T02:27:55;4.10;99.90
59025;DHT22;44806;48.008;13.666;2024-01-06T02:30:22;4.00;99.90
59025;DHT22;44806;48.008;13.666;2024-01-06T02:32:49;4.00;99.90
59025;DHT22;44806;48.008;13.666;2024-01-06T02:35:16;4.00;99.90
59025;DHT22;44806;48.008;13.666;2024-01-06T02:37:42;4.00;99.90
59025;DHT22;44806;48.008;13.666;2024-01-06T02:40:13;4.00;99.90
59025;DHT22;44806;48.008;13.666;2024-01-06T02:42:40;4.10;99.90
59025;DHT22;44806;48.008;13.666;2024-01-06T02:45:08;4.10;99.90
59025;DHT22;44806;48.008;13.666;2024-01-06T02:47:35;4.10;99.90
59025;DHT22;44806;48.008;13.666;2024-01-06T02:50:02;4.20;99.90
59025;DHT22;44806;48.008;13.666;2024-01-06T02:52:29;4.20;99.90
59025;DHT22;44806;48.008;13.666;2024-01-06T02:54:56;4.30;99.90
59025;DHT22;44806;48.008;13.666;2024-01-06T02:57:24;4.30;99.90
59025;DHT22;44806;48.008;13.666;2024-01-06T02:59:51;4.40;99.90
59025;DHT22;44806;48.008;13.666;2024-01-06T03:02:18;4.30;99.90
59025;DHT22;44806;48.008;13.666;2024-01-06T03:04:45;4.30;99.90
59025;DHT22;44806;48.008;13.666;2024-01-06T03:07:12;4.40;99.90
59025;DHT22;44806;48.008;13.666;2024-01-06T03:09:39;4.40;99.90
59025;DHT22;44806;48.008;13.666;2024-01-06T03:12:06;4.30;99.90
59025;DHT22;44806;48.008;13.666;2024-01-06T03:14:35;4.40;99.90
59025;DHT22;44806;48.008;13.666;2024-01-06T03:17:03;4.30;99.90
59025;DHT22;44806;48.008;13.666;2024-01-06T03:19:30;4.40;99.90
59025;DHT22;44806;48.008;13.666;2024-01-06T03:21:57;4.40;99.90
59025;DHT22;44806;48.008;13.666;2024-01-06T03:24:25;4.30;99.90
59025;DHT22;44806;48.008;13.666;2024-01-06T03:26:52;4.40;99.90
59025;DHT22;44806;48.008;13.666;2024-01-06T03:29:19;4.40;99.90
59025;DHT22;44806;48.008;13.666;2024-01-06T03:34:44;4.40;99.90
59025;DHT22;44806;48.008;13.666;2024-01-06T03:37:11;4.40;99.90
59025;DHT22;44806;48.008;13.666;2024-01-06T03:39:38;4.40;99.90
59025;DHT22;44806;48.008;13.666;2024-01-06T03:42:05;4.40;99.90
59025;DHT22;44806;48.008;13.666;2024-01-06T03:44:32;4.50;99.90
59025;DHT22;44806;48.008;13.666;2024-01-06T03:46:59;4.50;99.90
59025;DHT22;44806;48.008;13.666;2024-01-06T03:49:26;4.50;99.90
59025;DHT22;44806;48.008;13.666;2024-01-06T03:51:54;4.50;99.90
59025;DHT22;44806;48.008;13.666;2024-01-06T03:54:21;4.50;99.90
59025;DHT22;44806;48.008;13.666;2024-01-06T03:56:48;4.50;99.90
59025;DHT22;44806;48.008;13.666;2024-01-06T03:59:15;4.50;99.90
59025;DHT22;44806;48.008;13.666;2024-01-06T04:01:42;4.50;99.90
59025;DHT22;44806;48.008;13.666;2024-01-06T04:04:09;4.50;99.90
59025;DHT22;44806;48.008;13.666;2024-01-06T04:06:36;4.50;99.90
59025;DHT22;44806;48.008;13.666;2024-01-06T04:09:04;4.40;99.90
59025;DHT22;44806;48.008;13.666;2024-01-06T04:11:31;4.40;99.90
59025;DHT22;44806;48.008;13.666;2024-01-06T04:13:58;4.40;99.90
59025;DHT22;44806;48.008;13.666;2024-01-06T04:16:26;4.50;99.90
59025;DHT22;44806;48.008;13.666;2024-01-06T04:18:53;4.50;99.90
59025;DHT22;44806;48.008;13.666;2024-01-06T04:21:19;4.50;99.90
59025;DHT22;44806;48.008;13.666;2024-01-06T04:23:47;4.60;99.90
59025;DHT22;44806;48.008;13.666;2024-01-06T04:26:16;4.60;99.90
59025;DHT22;44806;48.008;13.666;2024-01-06T04:28:43;4.60;99.90
59025;DHT22;44806;48.008;13.666;2024-01-06T04:31:09;4.50;99.90
59025;DHT22;44806;48.008;13.666;2024-01-06T04:33:36;4.50;99.90
59025;DHT22;44806;48.008;13.666;2024-01-06T04:36:04;4.40;99.90
59025;DHT22;44806;48.008;13.666;2024-01-06T04:38:31;4.40;99.90
59025;DHT22;44806;48.008;13.666;2024-01-06T04:40:58;4.30;99.90
59025;DHT22;44806;48.008;13.666;2024-01-06T04:43:26;4.20;99.90
59025;DHT22;44806;48.008;13.666;2024-01-06T04:45:54;4.20;99.90
59025;DHT22;44806;48.008;13.666;2024-01-06T04:48:22;4.10;99.90
59025;DHT22;44806;48.008;13.666;2024-01-06T04:50:49;4.00;99.90
59025;DHT22;44806;48.008;13.666;2024-01-06T04:53:16;4.10;99.90
59025;DHT22;44806;48.008;13.666;2024-01-06T04:55:43;4.10;99.90
59025;DHT22;44806;48.008;13.666;2024-01-06T04:58:09;4.10;99.90
59025;DHT22;44806;48.008;13.666;2024-01-06T05:00:38;4.10;99.90
59025;DHT22;44806;48.008;13.666;2024-01-06T05:03:05;4.10;99.90
59025;DHT22;44806;48.008;13.666;2024-01-06T05:05:32;4.10;99.90
59025;DHT22;44806;48.008;13.666;2024-01-06T05:07:59;4.10;99.90
59025;DHT22;44806;48.008;13.666;2024-01-06T05:10:27;4.20;99.90
59025;DHT22;44806;48.008;13.666;2024-01-06T05:12:53;4.20;99.90
59025;DHT22;44806;48.008;13.666;2024-01-06T05:15:20;4.20;99.90
59025;DHT22;44806;48.008;13.666;2024-01-06T05:17:48;4.20;99.90
59025;DHT22;44806;48.008;13.666;2024-01-06T05:20:15;4.20;99.90
59025;DHT22;44806;48.008;13.666;2024-01-06T05:22:42;4.30;99.90
59025;DHT22;44806;48.008;13.666;2024-01-06T05:25:09;4.30;99.90
59025;DHT22;44806;48.008;13.666;2024-01-06T05:27:36;4.30;99.90
59025;DHT22;44806;48.008;13.666;2024-01-06T05:30:04;4.30;99.90
59025;DHT22;44806;48.008;13.666;2024-01-06T05:32:31;4.30;99.90
59025;DHT22;44806;48.008;13.666;2024-01-06T05:35:00;4.30;99.90
59025;DHT22;44806;48.008;13.666;2024-01-06T05:37:27;4.40;99.90
59025;DHT22;44806;48.008;13.666;2024-01-06T05:39:54;4.40;99.90
59025;DHT22;44806;48.008;13.666;2024-01-06T05:42:21;4.40;99.90
59025;DHT22;44806;48.008;13.666;2024-01-06T05:44:48;4.40;99.90
59025;DHT22;44806;48.008;13.666;2024-01-06T05:47:14;4.30;99.90
59025;DHT22;44806;48.008;13.666;2024-01-06T05:49:42;4.30;99.90
59025;DHT22;44806;48.008;13.666;2024-01-06T05:52:11;4.40;99.90
59025;DHT22;44806;48.008;13.666;2024-01-06T05:54:40;4.40;99.90
59025;DHT22;44806;48.008;13.666;2024-01-06T05:57:08;4.40;99.90
59025;DHT22;44806;48.008;13.666;2024-01-06T05:59:35;4.40;99.90
59025;DHT22;44806;48.008;13.666;2024-01-06T06:02:02;4.40;99.90
59025;DHT22;44806;48.008;13.666;2024-01-06T06:04:29;4.50;99.90
59025;DHT22;44806;48.008;13.666;2024-01-06T06:06:56;4.50;99.90
59025;DHT22;44806;48.008;13.666;2024-01-06T06:09:24;4.60;99.90
59025;DHT22;44806;48.008;13.666;2024-01-06T06:11:51;4.60;99.90
59025;DHT22;44806;48.008;13.666;2024-01-06T06:14:18;4.60;99.90
59025;DHT22;44806;48.008;13.666;2024-01-06T06:16:44;4.60;99.90
59025;DHT22;44806;48.008;13.666;2024-01-06T06:19:13;4.60;99.90
59025;DHT22;44806;48.008;13.666;2024-01-06T06:21:40;4.70;99.90
59025;DHT22;44806;48.008;13.666;2024-01-06T06:24:07;4.70;99.90
59025;DHT22;44806;48.008;13.666;2024-01-06T06:26:35;4.80;99.90
59025;DHT22;44806;48.008;13.666;2024-01-06T06:29:02;4.70;99.90
59025;DHT22;44806;48.008;13.666;2024-01-06T06:31:29;4.70;99.90
59025;DHT22;44806;48.008;13.666;2024-01-06T06:33:56;4.80;99.90
59025;DHT22;44806;48.008;13.666;2024-01-06T06:36:23;4.80;99.90
59025;DHT22;44806;48.008;13.666;2024-01-06T06:38:50;4.80;99.90
59025;DHT22;44806;48.008;13.666;2024-01-06T06:41:16;4.80;99.90
59025;DHT22;44806;48.008;13.666;2024-01-06T06:43:46;4.80;99.90
59025;DHT22;44806;48.008;13.666;2024-01-06T06:46:13;4.90;99.90
59025;DHT22;44806;48.008;13.666;2024-01-06T06:48:41;4.80;99.90
59025;DHT22;44806;48.008;13.666;2024-01-06T06:51:08;4.90;99.90
59025;DHT22;44806;48.008;13.666;2024-01-06T06:53:36;4.90;99.90
59025;DHT22;44806;48.008;13.666;2024-01-06T06:56:03;4.90;99.90
59025;DHT22;44806;48.008;13.666;2024-01-06T06:58:30;4.90;99.90
59025;DHT22;44806;48.008;13.666;2024-01-06T07:00:58;4.90;99.90
59025;DHT22;44806;48.008;13.666;2024-01-06T07:03:25;5.00;99.90
59025;DHT22;44806;48.008;13.666;2024-01-06T07:05:52;5.00;99.90
59025;DHT22;44806;48.008;13.666;2024-01-06T07:08:19;5.00;99.90
59025;DHT22;44806;48.008;13.666;2024-01-06T07:10:46;4.90;99.90
59025;DHT22;44806;48.008;13.666;2024-01-06T07:13:13;4.90;99.90
59025;DHT22;44806;48.008;13.666;2024-01-06T07:15:40;4.90;99.90
59025;DHT22;44806;48.008;13.666;2024-01-06T07:18:08;4.90;99.90
59025;DHT22;44806;48.008;13.666;2024-01-06T07:20:35;4.90;99.90
59025;DHT22;44806;48.008;13.666;2024-01-06T07:23:02;5.00;99.90
59025;DHT22;44806;48.008;13.666;2024-01-06T07:25:29;5.00;99.90
59025;DHT22;44806;48.008;13.666;2024-01-06T07:27:57;4.90;99.90
59025;DHT22;44806;48.008;13.666;2024-01-06T07:30:24;4.90;99.90
59025;DHT22;44806;48.008;13.666;2024-01-06T07:32:50;5.00;99.90
59025;DHT22;44806;48.008;13.666;2024-01-06T07:35:19;5.00;99.90
59025;DHT22;44806;48.008;13.666;2024-01-06T07:37:46;4.90;99.90
59025;DHT22;44806;48.008;13.666;2024-01-06T07:40:13;4.90;99.90
59025;DHT22;44806;48.008;13.666;2024-01-06T07:42:42;4.90;99.90
59025;DHT22;44806;48.008;13.666;2024-01-06T07:45:09;4.90;99.90
59025;DHT22;44806;48.008;13.666;2024-01-06T07:47:36;4.80;99.90
59025;DHT22;44806;48.008;13.666;2024-01-06T07:50:05;4.80;99.90
59025;DHT22;44806;48.008;13.666;2024-01-06T07:52:33;4.90;99.90
59025;DHT22;44806;48.008;13.666;2024-01-06T07:55:00;4.80;99.90
59025;DHT22;44806;48.008;13.666;2024-01-06T07:57:27;4.80;99.90
59025;DHT22;44806;48.008;13.666;2024-01-06T07:59:54;4.80;99.90
59025;DHT22;44806;48.008;13.666;2024-01-06T08:02:21;4.80;99.90
59025;DHT22;44806;48.008;13.666;2024-01-06T08:04:48;4.80;99.90
59025;DHT22;44806;48.008;13.666;2024-01-06T08:07:14;4.80;99.90
59025;DHT22;44806;48.008;13.666;2024-01-06T08:09:43;4.80;99.90
59025;DHT22;44806;48.008;13.666;2024-01-06T08:12:10;4.80;99.90
59025;DHT22;44806;48.008;13.666;2024-01-06T08:14:37;4.80;99.90
59025;DHT22;44806;48.008;13.666;2024-01-06T08:17:04;4.80;99.90
59025;DHT22;44806;48.008;13.666;2024-01-06T08:19:31;4.90;99.90
59025;DHT22;44806;48.008;13.666;2024-01-06T08:21:59;4.90;99.90
59025;DHT22;44806;48.008;13.666;2024-01-06T08:24:26;4.90;99.90
59025;DHT22;44806;48.008;13.666;2024-01-06T08:26:54;4.90;99.90
59025;DHT22;44806;48.008;13.666;2024-01-06T08:29:21;4.90;99.90
59025;DHT22;44806;48.008;13.666;2024-01-06T08:31:48;4.90;99.90
59025;DHT22;44806;48.008;13.666;2024-01-06T08:34:17;4.90;99.90
59025;DHT22;44806;48.008;13.666;2024-01-06T08:36:44;5.00;99.90
59025;DHT22;44806;48.008;13.666;2024-01-06T08:39:11;5.00;99.90
59025;DHT22;44806;48.008;13.666;2024-01-06T08:41:38;5.00;99.90
59025;DHT22;44806;48.008;13.666;2024-01-06T08:44:07;5.00;99.90
59025;DHT22;44806;48.008;13.666;2024-01-06T08:46:33;5.00;99.90
59025;DHT22;44806;48.008;13.666;2024-01-06T08:49:00;5.10;99.90
59025;DHT22;44806;48.008;13.666;2024-01-06T08:51:28;5.10;99.90
59025;DHT22;44806;48.008;13.666;2024-01-06T08:53:56;5.10;99.90
59025;DHT22;44806;48.008;13.666;2024-01-06T08:56:23;5.00;99.90
59025;DHT22;44806;48.008;13.666;2024-01-06T08:58:50;5.10;99.90
59025;DHT22;44806;48.008;13.666;2024-01-06T09:01:18;5.10;99.90
59025;DHT22;44806;48.008;13.666;2024-01-06T09:03:46;5.20;99.90
59025;DHT22;44806;48.008;13.666;2024-01-06T09:06:13;5.20;99.90
59025;DHT22;44806;48.008;13.666;2024-01-06T09:08:40;5.20;99.90
59025;DHT22;44806;48.008;13.666;2024-01-06T09:11:07;5.10;99.90
59025;DHT22;44806;48.008;13.666;2024-01-06T09:13:34;5.10;99.90
59025;DHT22;44806;48.008;13.666;2024-01-06T09:16:01;5.10;99.90
59025;DHT22;44806;48.008;13.666;2024-01-06T09:18:29;5.10;99.90
59025;DHT22;44806;48.008;13.666;2024-01-06T09:20:56;5.20;99.90
59025;DHT22;44806;48.008;13.666;2024-01-06T09:23:23;5.10;99.90
59025;DHT22;44806;48.008;13.666;2024-01-06T09:25:50;5.10;99.90
59025;DHT22;44806;48.008;13.666;2024-01-06T09:28:17;5.10;99.90
59025;DHT22;44806;48.008;13.666;2024-01-06T09:30:46;5.10;99.90
59025;DHT22;44806;48.008;13.666;2024-01-06T09:33:13;5.10;99.90
59025;DHT22;44806;48.008;13.666;2024-01-06T09:35:42;5.10;99.90
59025;DHT22;44806;48.008;13.666;2024-01-06T09:38:10;5.10;99.90
59025;DHT22;44806;48.008;13.666;2024-01-06T09:40:42;5.20;99.90
59025;DHT22;44806;48.008;13.666;2024-01-06T09:43:09;5.20;99.90
59025;DHT22;44806;48.008;13.666;2024-01-06T09:45:37;5.20;99.90
59025;DHT22;44806;48.008;13.666;2024-01-06T09:48:10;5.20;99.90
59025;DHT22;44806;48.008;13.666;2024-01-06T09:50:39;5.20;99.90
59025;DHT22;44806;48.008;13.666;2024-01-06T09:53:08;5.20;99.90
59025;DHT22;44806;48.008;13.666;2024-01-06T09:55:36;5.10;99.90
59025;DHT22;44806;48.008;13.666;2024-01-06T09:58:04;5.20;99.90
59025;DHT22;44806;48.008;13.666;2024-01-06T10:00:31;5.10;99.90
59025;DHT22;44806;48.008;13.666;2024-01-06T10:02:59;5.00;99.90
59025;DHT22;44806;48.008;13.666;2024-01-06T10:05:26;5.10;99.90
59025;DHT22;44806;48.008;13.666;2024-01-06T10:07:53;5.10;99.90
59025;DHT22;44806;48.008;13.666;2024-01-06T10:10:22;5.20;99.90
59025;DHT22;44806;48.008;13.666;2024-01-06T10:12:53;5.20;99.90
59025;DHT22;44806;48.008;13.666;2024-01-06T10:15:21;5.20;99.90
59025;DHT22;44806;48.008;13.666;2024-01-06T10:17:48;5.30;99.90
59025;DHT22;44806;48.008;13.666;2024-01-06T10:20:15;5.30;99.90
59025;DHT22;44806;48.008;13.666;2024-01-06T10:22:43;5.30;99.90
59025;DHT22;44806;48.008;13.666;2024-01-06T10:25:11;5.20;99.90
59025;DHT22;44806;48.008;13.666;2024-01-06T10:27:41;5.30;99.90
59025;DHT22;44806;48.008;13.666;2024-01-06T10:30:09;5.20;99.90
59025;DHT22;44806;48.008;13.666;2024-01-06T10:32:36;5.00;99.90
59025;DHT22;44806;48.008;13.666;2024-01-06T10:35:04;5.00;99.90
59025;DHT22;44806;48.008;13.666;2024-01-06T10:37:32;5.00;99.90
59025;DHT22;44806;48.008;13.666;2024-01-06T10:40:07;4.90;99.90
59025;DHT22;44806;48.008;13.666;2024-01-06T10:42:34;5.00;99.90
59025;DHT22;44806;48.008;13.666;2024-01-06T10:45:06;4.90;99.90
59025;DHT22;44806;48.008;13.666;2024-01-06T10:47:34;5.00;99.90
59025;DHT22;44806;48.008;13.666;2024-01-06T10:50:01;5.10;99.90
59025;DHT22;44806;48.008;13.666;2024-01-06T10:52:29;5.10;99.90
59025;DHT22;44806;48.008;13.666;2024-01-06T10:54:57;5.10;99.90
59025;DHT22;44806;48.008;13.666;2024-01-06T10:57:24;5.20;99.90
59025;DHT22;44806;48.008;13.666;2024-01-06T10:59:52;5.20;99.90
59025;DHT22;44806;48.008;13.666;2024-01-06T11:02:20;5.20;99.90
59025;DHT22;44806;48.008;13.666;2024-01-06T11:04:49;5.20;99.90
59025;DHT22;44806;48.008;13.666;2024-01-06T11:07:18;5.20;99.90
59025;DHT22;44806;48.008;13.666;2024-01-06T11:09:49;5.30;99.90
59025;DHT22;44806;48.008;13.666;2024-01-06T11:12:18;5.20;99.90
59025;DHT22;44806;48.008;13.666;2024-01-06T11:14:45;5.20;99.90
59025;DHT22;44806;48.008;13.666;2024-01-06T11:17:12;5.10;99.90
59025;DHT22;44806;48.008;13.666;2024-01-06T11:19:44;4.90;99.90
59025;DHT22;44806;48.008;13.666;2024-01-06T11:22:25;5.10;99.90
59025;DHT22;44806;48.008;13.666;2024-01-06T11:24:55;4.90;99.90
59025;DHT22;44806;48.008;13.666;2024-01-06T11:27:24;4.90;99.90
59025;DHT22;44806;48.008;13.666;2024-01-06T11:29:52;4.90;99.90
59025;DHT22;44806;48.008;13.666;2024-01-06T11:32:21;4.90;99.90
59025;DHT22;44806;48.008;13.666;2024-01-06T11:34:53;4.90;99.90
59025;DHT22;44806;48.008;13.666;2024-01-06T11:37:25;4.90;99.90
59025;DHT22;44806;48.008;13.666;2024-01-06T11:39:52;4.90;99.90
59025;DHT22;44806;48.008;13.666;2024-01-06T11:42:19;4.90;99.90
59025;DHT22;44806;48.008;13.666;2024-01-06T11:44:50;4.70;99.90
59025;DHT22;44806;48.008;13.666;2024-01-06T11:47:18;4.60;99.90
59025;DHT22;44806;48.008;13.666;2024-01-06T11:49:54;4.70;99.90
59025;DHT22;44806;48.008;13.666;2024-01-06T11:52:22;4.70;99.90
59025;DHT22;44806;48.008;13.666;2024-01-06T11:54:52;4.80;99.90
59025;DHT22;44806;48.008;13.666;2024-01-06T11:57:19;4.80;99.90
59025;DHT22;44806;48.008;13.666;2024-01-06T11:59:46;4.80;99.90
59025;DHT22;44806;48.008;13.666;2024-01-06T12:02:13;4.90;99.90
59025;DHT22;44806;48.008;13.666;2024-01-06T12:04:40;4.90;99.90
59025;DHT22;44806;48.008;13.666;2024-01-06T12:07:10;4.80;99.90
59025;DHT22;44806;48.008;13.666;2024-01-06T12:09:39;4.80;99.90
59025;DHT22;44806;48.008;13.666;2024-01-06T12:12:07;4.90;99.90
59025;DHT22;44806;48.008;13.666;2024-01-06T12:14:35;4.70;99.90
59025;DHT22;44806;48.008;13.666;2024-01-06T12:17:02;4.70;99.90
59025;DHT22;44806;48.008;13.666;2024-01-06T12:19:31;4.80;99.90
59025;DHT22;44806;48.008;13.666;2024-01-06T12:21:58;4.80;99.90
59025;DHT22;44806;48.008;13.666;2024-01-06T12:24:27;4.80;99.90
59025;DHT22;44806;48.008;13.666;2024-01-06T12:26:56;4.80;99.90
59025;DHT22;44806;48.008;13.666;2024-01-06T12:29:26;4.70;99.90
59025;DHT22;44806;48.008;13.666;2024-01-06T12:31:54;4.70;99.90
59025;DHT22;44806;48.008;13.666;2024-01-06T12:34:21;4.60;99.90
59025;DHT22;44806;48.008;13.666;2024-01-06T12:36:52;4.50;99.90
59025;DHT22;44806;48.008;13.666;2024-01-06T12:39:20;4.50;99.90
59025;DHT22;44806;48.008;13.666;2024-01-06T12:41:50;4.60;99.90
59025;DHT22;44806;48.008;13.666;2024-01-06T12:44:17;4.60;99.90
59025;DHT22;44806;48.008;13.666;2024-01-06T12:46:44;4.50;99.90
59025;DHT22;44806;48.008;13.666;2024-01-06T12:49:11;4.50;99.90
59025;DHT22;44806;48.008;13.666;2024-01-06T12:51:38;4.50;99.90
59025;DHT22;44806;48.008;13.666;2024-01-06T12:54:05;4.40;99.90
59025;DHT22;44806;48.008;13.666;2024-01-06T12:56:32;4.40;99.90
59025;DHT22;44806;48.008;13.666;2024-01-06T12:59:01;4.50;99.90
59025;DHT22;44806;48.008;13.666;2024-01-06T13:01:27;4.50;99.90
59025;DHT22;44806;48.008;13.666;2024-01-06T13:03:54;4.50;99.90
59025;DHT22;44806;48.008;13.666;2024-01-06T13:06:24;4.50;99.90
59025;DHT22;44806;48.008;13.666;2024-01-06T13:08:52;4.50;99.90
59025;DHT22;44806;48.008;13.666;2024-01-06T13:11:19;4.40;99.90
59025;DHT22;44806;48.008;13.666;2024-01-06T13:13:46;4.50;99.90
59025;DHT22;44806;48.008;13.666;2024-01-06T13:16:14;4.40;99.90
59025;DHT22;44806;48.008;13.666;2024-01-06T13:18:41;4.40;99.90
59025;DHT22;44806;48.008;13.666;2024-01-06T13:21:08;4.40;99.90
59025;DHT22;44806;48.008;13.666;2024-01-06T13:23:35;4.40;99.90
59025;DHT22;44806;48.008;13.666;2024-01-06T13:26:02;4.50;99.90
59025;DHT22;44806;48.008;13.666;2024-01-06T13:28:29;4.50;99.90
59025;DHT22;44806;48.008;13.666;2024-01-06T13:30:56;4.50;99.90
59025;DHT22;44806;48.008;13.666;2024-01-06T13:33:24;4.40;99.90
59025;DHT22;44806;48.008;13.666;2024-01-06T13:35:51;4.30;99.90
59025;DHT22;44806;48.008;13.666;2024-01-06T13:38:18;4.40;99.90
59025;DHT22;44806;48.008;13.666;2024-01-06T13:40:45;4.40;99.90
59025;DHT22;44806;48.008;13.666;2024-01-06T13:43:12;4.40;99.90
59025;DHT22;44806;48.008;13.666;2024-01-06T13:45:42;4.40;99.90
59025;DHT22;44806;48.008;13.666;2024-01-06T13:48:09;4.30;99.90
59025;DHT22;44806;48.008;13.666;2024-01-06T13:50:37;4.30;99.90
59025;DHT22;44806;48.008;13.666;2024-01-06T13:53:06;4.30;99.90
59025;DHT22;44806;48.008;13.666;2024-01-06T13:55:33;4.30;99.90
59025;DHT22;44806;48.008;13.666;2024-01-06T13:58:00;4.20;99.90
59025;DHT22;44806;48.008;13.666;2024-01-06T14:00:27;4.10;99.90
59025;DHT22;44806;48.008;13.666;2024-01-06T14:02:54;4.10;99.90
59025;DHT22;44806;48.008;13.666;2024-01-06T14:05:21;4.00;99.90
59025;DHT22;44806;48.008;13.666;2024-01-06T14:07:50;4.00;99.90
59025;DHT22;44806;48.008;13.666;2024-01-06T14:10:17;4.00;99.90
59025;DHT22;44806;48.008;13.666;2024-01-06T14:12:44;4.10;99.90
59025;DHT22;44806;48.008;13.666;2024-01-06T14:15:11;4.10;99.90
59025;DHT22;44806;48.008;13.666;2024-01-06T14:17:39;4.00;99.90
59025;DHT22;44806;48.008;13.666;2024-01-06T14:20:07;4.00;99.90
59025;DHT22;44806;48.008;13.666;2024-01-06T14:22:38;4.00;99.90
59025;DHT22;44806;48.008;13.666;2024-01-06T14:25:07;4.10;99.90
59025;DHT22;44806;48.008;13.666;2024-01-06T14:27:34;4.10;99.90
59025;DHT22;44806;48.008;13.666;2024-01-06T14:30:01;4.00;99.90
59025;DHT22;44806;48.008;13.666;2024-01-06T14:32:28;4.00;99.90
59025;DHT22;44806;48.008;13.666;2024-01-06T14:34:55;4.00;99.90
59025;DHT22;44806;48.008;13.666;2024-01-06T14:37:22;4.00;99.90
59025;DHT22;44806;48.008;13.666;2024-01-06T14:39:49;3.90;99.90
59025;DHT22;44806;48.008;13.666;2024-01-06T14:42:17;3.90;99.90
59025;DHT22;44806;48.008;13.666;2024-01-06T14:44:45;4.00;99.90
59025;DHT22;44806;48.008;13.666;2024-01-06T14:47:12;3.90;99.90
59025;DHT22;44806;48.008;13.666;2024-01-06T14:49:39;3.90;99.90
59025;DHT22;44806;48.008;13.666;2024-01-06T14:52:06;3.90;99.90
59025;DHT22;44806;48.008;13.666;2024-01-06T14:54:35;3.80;99.90
59025;DHT22;44806;48.008;13.666;2024-01-06T14:57:02;3.60;99.90
59025;DHT22;44806;48.008;13.666;2024-01-06T14:59:30;3.50;99.90
59025;DHT22;44806;48.008;13.666;2024-01-06T15:01:58;3.50;99.90
59025;DHT22;44806;48.008;13.666;2024-01-06T15:04:24;3.50;99.90
59025;DHT22;44806;48.008;13.666;2024-01-06T15:06:51;3.40;99.90
59025;DHT22;44806;48.008;13.666;2024-01-06T15:09:18;3.30;99.90
59025;DHT22;44806;48.008;13.666;2024-01-06T15:11:45;3.30;99.90
59025;DHT22;44806;48.008;13.666;2024-01-06T15:14:12;3.10;99.90
59025;DHT22;44806;48.008;13.666;2024-01-06T15:16:41;3.10;99.90
59025;DHT22;44806;48.008;13.666;2024-01-06T15:19:08;3.10;99.90
59025;DHT22;44806;48.008;13.666;2024-01-06T15:21:35;3.00;99.90
59025;DHT22;44806;48.008;13.666;2024-01-06T15:24:02;3.00;99.90
59025;DHT22;44806;48.008;13.666;2024-01-06T15:26:30;2.90;99.90
59025;DHT22;44806;48.008;13.666;2024-01-06T15:28:57;2.90;99.90
59025;DHT22;44806;48.008;13.666;2024-01-06T15:31:26;3.00;99.90
59025;DHT22;44806;48.008;13.666;2024-01-06T15:33:54;3.00;99.90